sensor_id;sensor_type;location;lat;lon;timestamp;temperature;humidity
810;DHT22;387;48.772;9.186;2022-08-01T00:00:39;23.10;57.20
810;DHT22;387;48.772;9.186;2022-08-01T00:03:05;23.00;57.30
810;DHT22;387;48.772;9.186;2022-08-01T00:05:31;23.00;57.40
810;DHT22;387;48.772;9.186;2022-08-01T00:07:56;23.00;57.40
810;DHT22;387;48.772;9.186;2022-08-01T00:10:22;23.00;57.70
810;DHT22;387;48.772;9.186;2022-08-01T00:12:48;22.90;57.80
810;DHT22;387;48.772;9.186;2022-08-01T00:15:15;22.90;58.00
810;DHT22;387;48.772;9.186;2022-08-01T00:17:43;22.80;58.00
810;DHT22;387;48.772;9.186;2022-08-01T00:20:10;22.80;58.10
810;DHT22;387;48.772;9.186;2022-08-01T00:22:36;22.80;58.10
810;DHT22;387;48.772;9.186;2022-08-01T00:25:03;22.80;58.50
810;DHT22;387;48.772;9.186;2022-08-01T00:27:29;22.80;58.50
810;DHT22;387;48.772;9.186;2022-08-01T00:29:55;22.80;58.50
810;DHT22;387;48.772;9.186;2022-08-01T00:32:20;22.70;58.70
810;DHT22;387;48.772;9.186;2022-08-01T00:34:46;22.70;58.80
810;DHT22;387;48.772;9.186;2022-08-01T00:37:11;22.60;58.90
810;DHT22;387;48.772;9.186;2022-08-01T00:39:37;22.60;59.10
810;DHT22;387;48.772;9.186;2022-08-01T00:42:07;22.60;59.20
810;DHT22;387;48.772;9.186;2022-08-01T00:44:34;22.50;59.30
810;DHT22;387;48.772;9.186;2022-08-01T00:46:59;22.50;59.60
810;DHT22;387;48.772;9.186;2022-08-01T00:49:25;22.50;59.70
810;DHT22;387;48.772;9.186;2022-08-01T00:51:51;22.50;59.70
810;DHT22;387;48.772;9.186;2022-08-01T00:54:16;22.50;59.90
810;DHT22;387;48.772;9.186;2022-08-01T00:56:42;22.40;60.10
810;DHT22;387;48.772;9.186;2022-08-01T00:59:09;22.30;60.40
810;DHT22;387;48.772;9.186;2022-08-01T01:01:36;22.20;60.70
810;DHT22;387;48.772;9.186;2022-08-01T01:04:02;22.20;61.00
810;DHT22;387;48.772;9.186;2022-08-01T01:12:11;22.10;61.70
810;DHT22;387;48.772;9.186;2022-08-01T01:17:33;21.90;62.30
810;DHT22;387;48.772;9.186;2022-08-01T01:20:02;21.90;62.50
810;DHT22;387;48.772;9.186;2022-08-01T01:30:30;21.90;63.10
810;DHT22;387;48.772;9.186;2022-08-01T01:32:59;21.80;63.20
810;DHT22;387;48.772;9.186;2022-08-01T01:35:29;21.80;63.40
810;DHT22;387;48.772;9.186;2022-08-01T01:38:14;21.80;63.20
810;DHT22;387;48.772;9.186;2022-08-01T01:40:43;21.80;63.40
810;DHT22;387;48.772;9.186;2022-08-01T01:43:11;21.80;63.70
810;DHT22;387;48.772;9.186;2022-08-01T01:45:39;21.80;64.20
810;DHT22;387;48.772;9.186;2022-08-01T01:48:06;21.80;64.10
810;DHT22;387;48.772;9.186;2022-08-01T01:50:33;21.80;64.10
810;DHT22;387;48.772;9.186;2022-08-01T01:53:01;21.70;64.20
810;DHT22;387;48.772;9.186;2022-08-01T01:55:28;21.60;64.50
810;DHT22;387;48.772;9.186;2022-08-01T01:57:55;21.60;64.50
810;DHT22;387;48.772;9.186;2022-08-01T02:00:22;21.60;64.70
810;DHT22;387;48.772;9.186;2022-08-01T02:02:49;21.60;65.00
810;DHT22;387;48.772;9.186;2022-08-01T02:05:17;21.60;64.80
810;DHT22;387;48.772;9.186;2022-08-01T02:07:43;21.50;65.40
810;DHT22;387;48.772;9.186;2022-08-01T02:10:10;21.50;65.30
810;DHT22;387;48.772;9.186;2022-08-01T02:12:40;21.50;65.40
810;DHT22;387;48.772;9.186;2022-08-01T02:15:07;21.50;65.60
810;DHT22;387;48.772;9.186;2022-08-01T02:17:37;21.30;66.00
810;DHT22;387;48.772;9.186;2022-08-01T02:20:05;21.30;66.30
810;DHT22;387;48.772;9.186;2022-08-01T02:22:35;21.30;66.40
810;DHT22;387;48.772;9.186;2022-08-01T02:25:24;21.30;66.40
810;DHT22;387;48.772;9.186;2022-08-01T02:28:04;21.20;66.90
810;DHT22;387;48.772;9.186;2022-08-01T02:30:37;21.10;67.30
810;DHT22;387;48.772;9.186;2022-08-01T02:33:15;21.10;67.30
810;DHT22;387;48.772;9.186;2022-08-01T02:35:43;21.10;67.50
810;DHT22;387;48.772;9.186;2022-08-01T02:38:12;21.10;67.70
810;DHT22;387;48.772;9.186;2022-08-01T02:40:42;21.00;67.90
810;DHT22;387;48.772;9.186;2022-08-01T02:43:09;21.00;68.00
810;DHT22;387;48.772;9.186;2022-08-01T02:45:39;20.90;68.20
810;DHT22;387;48.772;9.186;2022-08-01T02:48:13;20.90;68.30
810;DHT22;387;48.772;9.186;2022-08-01T02:50:42;20.90;68.60
810;DHT22;387;48.772;9.186;2022-08-01T02:53:09;20.90;68.80
810;DHT22;387;48.772;9.186;2022-08-01T02:55:38;20.90;69.10
810;DHT22;387;48.772;9.186;2022-08-01T02:58:07;20.80;69.40
810;DHT22;387;48.772;9.186;2022-08-01T03:00:34;20.80;69.50
810;DHT22;387;48.772;9.186;2022-08-01T03:03:01;20.80;69.50
810;DHT22;387;48.772;9.186;2022-08-01T03:05:29;20.80;69.70
810;DHT22;387;48.772;9.186;2022-08-01T03:07:58;20.80;69.80
810;DHT22;387;48.772;9.186;2022-08-01T03:10:27;20.70;70.10
810;DHT22;387;48.772;9.186;2022-08-01T03:12:54;20.70;70.20
810;DHT22;387;48.772;9.186;2022-08-01T03:15:22;20.60;70.50
810;DHT22;387;48.772;9.186;2022-08-01T03:17:50;20.60;70.80
810;DHT22;387;48.772;9.186;2022-08-01T03:20:18;20.50;71.10
810;DHT22;387;48.772;9.186;2022-08-01T03:22:45;20.40;71.40
810;DHT22;387;48.772;9.186;2022-08-01T03:25:13;20.50;71.40
810;DHT22;387;48.772;9.186;2022-08-01T03:27:42;20.50;71.60
810;DHT22;387;48.772;9.186;2022-08-01T03:30:08;20.50;71.70
810;DHT22;387;48.772;9.186;2022-08-01T03:32:35;20.50;71.70
810;DHT22;387;48.772;9.186;2022-08-01T03:35:01;20.50;72.00
810;DHT22;387;48.772;9.186;2022-08-01T03:37:38;20.50;72.00
810;DHT22;387;48.772;9.186;2022-08-01T03:40:10;20.60;72.00
810;DHT22;387;48.772;9.186;2022-08-01T03:42:45;20.60;72.00
810;DHT22;387;48.772;9.186;2022-08-01T03:45:19;20.50;72.10
810;DHT22;387;48.772;9.186;2022-08-01T03:47:46;20.60;72.30
810;DHT22;387;48.772;9.186;2022-08-01T03:50:14;20.60;72.30
810;DHT22;387;48.772;9.186;2022-08-01T03:52:43;20.60;72.30
810;DHT22;387;48.772;9.186;2022-08-01T03:55:11;20.50;72.60
810;DHT22;387;48.772;9.186;2022-08-01T03:57:38;20.60;72.40
810;DHT22;387;48.772;9.186;2022-08-01T04:00:06;20.60;72.60
810;DHT22;387;48.772;9.186;2022-08-01T04:02:34;20.60;72.60
810;DHT22;387;48.772;9.186;2022-08-01T04:05:02;20.60;72.40
810;DHT22;387;48.772;9.186;2022-08-01T04:07:30;20.60;72.70
810;DHT22;387;48.772;9.186;2022-08-01T04:09:56;20.60;72.70
810;DHT22;387;48.772;9.186;2022-08-01T04:12:23;20.70;72.60
810;DHT22;387;48.772;9.186;2022-08-01T04:14:49;20.60;72.90
810;DHT22;387;48.772;9.186;2022-08-01T04:17:16;20.60;72.90
810;DHT22;387;48.772;9.186;2022-08-01T04:19:42;20.60;72.90
810;DHT22;387;48.772;9.186;2022-08-01T04:22:09;20.70;72.90
810;DHT22;387;48.772;9.186;2022-08-01T04:24:36;20.70;72.90
810;DHT22;387;48.772;9.186;2022-08-01T04:27:04;20.70;72.90
810;DHT22;387;48.772;9.186;2022-08-01T04:29:31;20.70;72.90
810;DHT22;387;48.772;9.186;2022-08-01T04:31:58;20.80;73.00
810;DHT22;387;48.772;9.186;2022-08-01T04:34:28;20.80;72.90
810;DHT22;387;48.772;9.186;2022-08-01T04:36:57;20.80;73.00
810;DHT22;387;48.772;9.186;2022-08-01T04:39:27;20.90;73.00
810;DHT22;387;48.772;9.186;2022-08-01T04:41:55;20.90;72.90
810;DHT22;387;48.772;9.186;2022-08-01T04:44:23;20.90;72.70
810;DHT22;387;48.772;9.186;2022-08-01T04:46:50;20.90;73.00
810;DHT22;387;48.772;9.186;2022-08-01T04:49:20;20.90;73.20
810;DHT22;387;48.772;9.186;2022-08-01T04:51:50;20.80;73.50
810;DHT22;387;48.772;9.186;2022-08-01T04:54:16;20.80;73.60
810;DHT22;387;48.772;9.186;2022-08-01T04:56:42;20.80;73.90
810;DHT22;387;48.772;9.186;2022-08-01T04:59:07;20.80;73.90
810;DHT22;387;48.772;9.186;2022-08-01T05:01:51;20.80;74.00
810;DHT22;387;48.772;9.186;2022-08-01T05:04:17;20.80;74.00
810;DHT22;387;48.772;9.186;2022-08-01T05:06:43;20.80;74.20
810;DHT22;387;48.772;9.186;2022-08-01T05:09:09;20.80;74.30
810;DHT22;387;48.772;9.186;2022-08-01T05:11:35;20.90;74.30
810;DHT22;387;48.772;9.186;2022-08-01T05:14:00;21.10;74.20
810;DHT22;387;48.772;9.186;2022-08-01T05:16:26;21.20;73.90
810;DHT22;387;48.772;9.186;2022-08-01T05:18:51;21.20;73.90
810;DHT22;387;48.772;9.186;2022-08-01T05:21:17;21.30;73.90
810;DHT22;387;48.772;9.186;2022-08-01T05:23:43;21.40;73.70
810;DHT22;387;48.772;9.186;2022-08-01T05:26:09;21.50;73.50
810;DHT22;387;48.772;9.186;2022-08-01T05:28:35;21.50;73.00
810;DHT22;387;48.772;9.186;2022-08-01T05:31:01;21.50;72.90
810;DHT22;387;48.772;9.186;2022-08-01T05:33:26;21.60;72.90
810;DHT22;387;48.772;9.186;2022-08-01T05:35:52;21.60;72.40
810;DHT22;387;48.772;9.186;2022-08-01T05:38:17;21.60;72.70
810;DHT22;387;48.772;9.186;2022-08-01T05:40:43;21.60;73.00
810;DHT22;387;48.772;9.186;2022-08-01T05:43:08;21.60;73.30
810;DHT22;387;48.772;9.186;2022-08-01T05:45:34;21.60;73.20
810;DHT22;387;48.772;9.186;2022-08-01T05:48:00;21.70;73.20
810;DHT22;387;48.772;9.186;2022-08-01T05:50:25;21.70;73.20
810;DHT22;387;48.772;9.186;2022-08-01T05:52:51;21.80;73.20
810;DHT22;387;48.772;9.186;2022-08-01T05:55:16;21.90;73.20
810;DHT22;387;48.772;9.186;2022-08-01T05:57:42;21.90;73.00
810;DHT22;387;48.772;9.186;2022-08-01T06:00:08;22.10;72.90
810;DHT22;387;48.772;9.186;2022-08-01T06:02:39;22.20;72.60
810;DHT22;387;48.772;9.186;2022-08-01T06:05:05;22.30;72.30
810;DHT22;387;48.772;9.186;2022-08-01T06:07:30;22.40;72.10
810;DHT22;387;48.772;9.186;2022-08-01T06:09:56;22.40;72.00
810;DHT22;387;48.772;9.186;2022-08-01T06:12:21;22.50;71.70
810;DHT22;387;48.772;9.186;2022-08-01T06:14:47;22.60;71.60
810;DHT22;387;48.772;9.186;2022-08-01T06:17:13;22.70;71.40
810;DHT22;387;48.772;9.186;2022-08-01T06:19:38;22.70;71.40
810;DHT22;387;48.772;9.186;2022-08-01T06:22:04;22.80;71.10
810;DHT22;387;48.772;9.186;2022-08-01T06:24:29;22.90;71.10
810;DHT22;387;48.772;9.186;2022-08-01T06:26:55;22.90;71.00
810;DHT22;387;48.772;9.186;2022-08-01T06:29:21;22.90;71.10
810;DHT22;387;48.772;9.186;2022-08-01T06:31:46;22.90;71.30
810;DHT22;387;48.772;9.186;2022-08-01T06:34:12;23.00;71.00
810;DHT22;387;48.772;9.186;2022-08-01T06:36:37;23.00;71.30
810;DHT22;387;48.772;9.186;2022-08-01T06:39:03;23.00;71.40
810;DHT22;387;48.772;9.186;2022-08-01T06:41:28;22.90;71.60
810;DHT22;387;48.772;9.186;2022-08-01T06:43:54;23.00;71.60
810;DHT22;387;48.772;9.186;2022-08-01T06:46:19;23.00;71.60
810;DHT22;387;48.772;9.186;2022-08-01T06:48:45;23.00;71.70
810;DHT22;387;48.772;9.186;2022-08-01T06:51:11;23.10;71.30
810;DHT22;387;48.772;9.186;2022-08-01T06:53:40;23.20;71.00
810;DHT22;387;48.772;9.186;2022-08-01T06:56:06;23.10;70.50
810;DHT22;387;48.772;9.186;2022-08-01T06:58:34;23.10;70.70
810;DHT22;387;48.772;9.186;2022-08-01T07:01:00;23.20;70.50
810;DHT22;387;48.772;9.186;2022-08-01T07:03:26;23.20;70.50
810;DHT22;387;48.772;9.186;2022-08-01T07:05:52;23.40;69.50
810;DHT22;387;48.772;9.186;2022-08-01T07:08:17;23.40;69.40
810;DHT22;387;48.772;9.186;2022-08-01T07:10:43;23.50;69.20
810;DHT22;387;48.772;9.186;2022-08-01T07:13:09;23.50;69.10
810;DHT22;387;48.772;9.186;2022-08-01T07:15:34;23.60;68.90
810;DHT22;387;48.772;9.186;2022-08-01T07:18:00;23.60;68.60
810;DHT22;387;48.772;9.186;2022-08-01T07:20:29;23.40;69.20
810;DHT22;387;48.772;9.186;2022-08-01T07:22:54;23.50;69.20
810;DHT22;387;48.772;9.186;2022-08-01T07:25:20;23.60;68.80
810;DHT22;387;48.772;9.186;2022-08-01T07:27:46;23.70;68.80
810;DHT22;387;48.772;9.186;2022-08-01T07:30:11;23.90;68.20
810;DHT22;387;48.772;9.186;2022-08-01T07:32:37;24.00;67.70
810;DHT22;387;48.772;9.186;2022-08-01T07:35:03;24.10;67.60
810;DHT22;387;48.772;9.186;2022-08-01T07:37:29;24.00;67.30
810;DHT22;387;48.772;9.186;2022-08-01T07:39:54;24.10;67.20
810;DHT22;387;48.772;9.186;2022-08-01T07:42:20;24.20;66.40
810;DHT22;387;48.772;9.186;2022-08-01T07:44:45;24.20;66.40
810;DHT22;387;48.772;9.186;2022-08-01T07:47:11;24.00;67.20
810;DHT22;387;48.772;9.186;2022-08-01T07:49:37;24.20;66.40
810;DHT22;387;48.772;9.186;2022-08-01T07:52:03;24.30;65.60
810;DHT22;387;48.772;9.186;2022-08-01T07:54:28;24.50;65.30
810;DHT22;387;48.772;9.186;2022-08-01T07:56:55;24.60;65.30
810;DHT22;387;48.772;9.186;2022-08-01T07:59:21;24.60;65.00
810;DHT22;387;48.772;9.186;2022-08-01T08:01:49;24.80;64.40
810;DHT22;387;48.772;9.186;2022-08-01T08:04:16;24.80;64.10
810;DHT22;387;48.772;9.186;2022-08-01T08:06:42;24.80;64.20
810;DHT22;387;48.772;9.186;2022-08-01T08:09:08;24.90;64.10
810;DHT22;387;48.772;9.186;2022-08-01T08:11:34;25.00;63.20
810;DHT22;387;48.772;9.186;2022-08-01T08:13:59;25.20;63.10
810;DHT22;387;48.772;9.186;2022-08-01T08:16:25;25.00;62.90
810;DHT22;387;48.772;9.186;2022-08-01T08:18:51;25.00;63.20
810;DHT22;387;48.772;9.186;2022-08-01T08:21:17;25.10;63.10
810;DHT22;387;48.772;9.186;2022-08-01T08:23:43;25.30;62.90
810;DHT22;387;48.772;9.186;2022-08-01T08:26:27;25.50;62.20
810;DHT22;387;48.772;9.186;2022-08-01T08:28:52;25.20;62.60
810;DHT22;387;48.772;9.186;2022-08-01T08:31:18;25.30;62.80
810;DHT22;387;48.772;9.186;2022-08-01T08:33:43;25.40;62.30
810;DHT22;387;48.772;9.186;2022-08-01T08:36:09;25.20;62.90
810;DHT22;387;48.772;9.186;2022-08-01T08:38:36;24.90;63.50
810;DHT22;387;48.772;9.186;2022-08-01T08:41:02;24.80;64.40
810;DHT22;387;48.772;9.186;2022-08-01T08:43:28;24.80;64.20
810;DHT22;387;48.772;9.186;2022-08-01T08:45:53;24.80;64.10
810;DHT22;387;48.772;9.186;2022-08-01T08:48:19;25.00;63.80
810;DHT22;387;48.772;9.186;2022-08-01T08:50:46;25.30;63.10
810;DHT22;387;48.772;9.186;2022-08-01T08:53:13;25.70;62.30
810;DHT22;387;48.772;9.186;2022-08-01T08:55:41;25.50;62.60
810;DHT22;387;48.772;9.186;2022-08-01T08:58:11;25.30;63.20
810;DHT22;387;48.772;9.186;2022-08-01T09:00:41;24.90;64.40
810;DHT22;387;48.772;9.186;2022-08-01T09:03:06;25.10;63.90
810;DHT22;387;48.772;9.186;2022-08-01T09:05:32;25.30;63.50
810;DHT22;387;48.772;9.186;2022-08-01T09:07:58;25.40;63.10
810;DHT22;387;48.772;9.186;2022-08-01T09:10:23;25.40;62.90
810;DHT22;387;48.772;9.186;2022-08-01T09:13:03;25.40;62.80
810;DHT22;387;48.772;9.186;2022-08-01T09:15:47;25.20;63.50
810;DHT22;387;48.772;9.186;2022-08-01T09:26:00;25.70;62.00
810;DHT22;387;48.772;9.186;2022-08-01T09:28:32;25.80;61.60
810;DHT22;387;48.772;9.186;2022-08-01T09:30:58;25.80;61.60
810;DHT22;387;48.772;9.186;2022-08-01T09:33:24;25.70;61.70
810;DHT22;387;48.772;9.186;2022-08-01T09:35:55;25.70;61.90
810;DHT22;387;48.772;9.186;2022-08-01T09:38:22;25.80;61.30
810;DHT22;387;48.772;9.186;2022-08-01T09:40:56;25.70;61.70
810;DHT22;387;48.772;9.186;2022-08-01T09:43:25;26.00;60.90
810;DHT22;387;48.772;9.186;2022-08-01T09:45:51;26.30;60.40
810;DHT22;387;48.772;9.186;2022-08-01T09:48:18;25.90;60.70
810;DHT22;387;48.772;9.186;2022-08-01T09:50:46;25.70;61.60
810;DHT22;387;48.772;9.186;2022-08-01T09:53:13;25.90;61.60
810;DHT22;387;48.772;9.186;2022-08-01T09:55:39;26.00;61.20
810;DHT22;387;48.772;9.186;2022-08-01T09:58:06;26.10;60.30
810;DHT22;387;48.772;9.186;2022-08-01T10:00:33;25.70;61.90
810;DHT22;387;48.772;9.186;2022-08-01T10:03:00;25.80;61.70
810;DHT22;387;48.772;9.186;2022-08-01T10:05:43;25.90;61.00
810;DHT22;387;48.772;9.186;2022-08-01T10:08:08;25.60;62.20
810;DHT22;387;48.772;9.186;2022-08-01T10:10:35;25.70;61.90
810;DHT22;387;48.772;9.186;2022-08-01T10:13:02;25.90;61.60
810;DHT22;387;48.772;9.186;2022-08-01T10:15:28;26.00;61.20
810;DHT22;387;48.772;9.186;2022-08-01T10:17:57;26.10;60.90
810;DHT22;387;48.772;9.186;2022-08-01T10:20:28;25.70;61.50
810;DHT22;387;48.772;9.186;2022-08-01T10:22:55;25.80;61.60
810;DHT22;387;48.772;9.186;2022-08-01T10:25:24;26.10;60.60
810;DHT22;387;48.772;9.186;2022-08-01T10:27:53;26.70;58.90
810;DHT22;387;48.772;9.186;2022-08-01T10:30:22;27.00;57.30
810;DHT22;387;48.772;9.186;2022-08-01T10:32:49;27.00;57.70
810;DHT22;387;48.772;9.186;2022-08-01T10:35:17;27.60;56.60
810;DHT22;387;48.772;9.186;2022-08-01T10:37:45;27.50;56.50
810;DHT22;387;48.772;9.186;2022-08-01T10:40:13;27.90;55.70
810;DHT22;387;48.772;9.186;2022-08-01T10:42:43;27.70;55.40
810;DHT22;387;48.772;9.186;2022-08-01T10:45:14;28.30;54.20
810;DHT22;387;48.772;9.186;2022-08-01T10:50:44;27.40;55.70
810;DHT22;387;48.772;9.186;2022-08-01T10:53:15;26.80;57.00
810;DHT22;387;48.772;9.186;2022-08-01T10:58:28;26.50;58.40
810;DHT22;387;48.772;9.186;2022-08-01T11:01:18;26.20;58.90
810;DHT22;387;48.772;9.186;2022-08-01T11:04:08;26.00;59.50
810;DHT22;387;48.772;9.186;2022-08-01T11:09:15;26.10;59.30
810;DHT22;387;48.772;9.186;2022-08-01T11:11:58;26.40;58.40
810;DHT22;387;48.772;9.186;2022-08-01T11:14:24;26.70;57.40
810;DHT22;387;48.772;9.186;2022-08-01T11:16:50;27.30;56.20
810;DHT22;387;48.772;9.186;2022-08-01T11:19:15;27.60;55.30
810;DHT22;387;48.772;9.186;2022-08-01T11:27:18;26.60;57.40
810;DHT22;387;48.772;9.186;2022-08-01T11:32:50;26.70;56.80
810;DHT22;387;48.772;9.186;2022-08-01T11:35:16;26.80;56.50
810;DHT22;387;48.772;9.186;2022-08-01T11:37:43;26.70;56.90
810;DHT22;387;48.772;9.186;2022-08-01T11:42:40;26.90;56.80
810;DHT22;387;48.772;9.186;2022-08-01T11:45:07;27.30;55.40
810;DHT22;387;48.772;9.186;2022-08-01T11:47:44;27.80;54.40
810;DHT22;387;48.772;9.186;2022-08-01T11:50:31;28.00;53.20
810;DHT22;387;48.772;9.186;2022-08-01T11:53:05;27.70;54.00
810;DHT22;387;48.772;9.186;2022-08-01T11:55:31;27.20;55.60
810;DHT22;387;48.772;9.186;2022-08-01T11:58:06;27.10;55.20
810;DHT22;387;48.772;9.186;2022-08-01T12:00:33;27.40;55.30
810;DHT22;387;48.772;9.186;2022-08-01T12:03:01;27.80;53.80
810;DHT22;387;48.772;9.186;2022-08-01T12:05:28;27.40;55.00
810;DHT22;387;48.772;9.186;2022-08-01T12:07:55;27.20;55.00
810;DHT22;387;48.772;9.186;2022-08-01T12:10:24;27.10;55.60
810;DHT22;387;48.772;9.186;2022-08-01T12:12:58;27.00;55.70
810;DHT22;387;48.772;9.186;2022-08-01T12:15:28;26.90;56.00
810;DHT22;387;48.772;9.186;2022-08-01T12:18:02;27.00;55.70
810;DHT22;387;48.772;9.186;2022-08-01T12:20:35;27.50;54.50
810;DHT22;387;48.772;9.186;2022-08-01T12:23:03;27.40;53.80
810;DHT22;387;48.772;9.186;2022-08-01T12:25:31;27.50;53.20
810;DHT22;387;48.772;9.186;2022-08-01T12:28:00;27.30;53.40
810;DHT22;387;48.772;9.186;2022-08-01T12:30:27;27.00;54.00
810;DHT22;387;48.772;9.186;2022-08-01T12:32:54;27.10;54.10
810;DHT22;387;48.772;9.186;2022-08-01T12:35:23;27.20;54.10
810;DHT22;387;48.772;9.186;2022-08-01T12:38:04;27.30;53.80
810;DHT22;387;48.772;9.186;2022-08-01T12:40:32;27.10;55.20
810;DHT22;387;48.772;9.186;2022-08-01T12:43:00;27.10;55.30
810;DHT22;387;48.772;9.186;2022-08-01T12:45:30;27.50;54.20
810;DHT22;387;48.772;9.186;2022-08-01T12:47:57;27.60;54.20
810;DHT22;387;48.772;9.186;2022-08-01T12:50:26;27.50;54.50
810;DHT22;387;48.772;9.186;2022-08-01T12:52:53;27.70;53.80
810;DHT22;387;48.772;9.186;2022-08-01T12:55:25;28.00;53.40
810;DHT22;387;48.772;9.186;2022-08-01T12:58:07;27.90;53.20
810;DHT22;387;48.772;9.186;2022-08-01T13:00:34;27.90;53.40
810;DHT22;387;48.772;9.186;2022-08-01T13:03:08;28.10;52.80
810;DHT22;387;48.772;9.186;2022-08-01T13:05:47;28.10;52.50
810;DHT22;387;48.772;9.186;2022-08-01T13:08:15;27.90;53.00
810;DHT22;387;48.772;9.186;2022-08-01T13:10:42;27.80;52.80
810;DHT22;387;48.772;9.186;2022-08-01T13:13:09;27.80;53.20
810;DHT22;387;48.772;9.186;2022-08-01T13:15:37;28.70;51.40
810;DHT22;387;48.772;9.186;2022-08-01T13:18:24;28.90;50.60
810;DHT22;387;48.772;9.186;2022-08-01T13:21:13;28.50;51.70
810;DHT22;387;48.772;9.186;2022-08-01T13:23:40;28.40;52.60
810;DHT22;387;48.772;9.186;2022-08-01T13:26:06;28.40;52.90
810;DHT22;387;48.772;9.186;2022-08-01T13:28:32;28.60;52.10
810;DHT22;387;48.772;9.186;2022-08-01T13:33:46;28.40;52.60
810;DHT22;387;48.772;9.186;2022-08-01T13:36:12;28.50;52.40
810;DHT22;387;48.772;9.186;2022-08-01T13:38:39;28.20;52.80
810;DHT22;387;48.772;9.186;2022-08-01T13:41:23;28.00;53.20
810;DHT22;387;48.772;9.186;2022-08-01T13:43:49;28.00;54.00
810;DHT22;387;48.772;9.186;2022-08-01T13:46:15;28.10;52.90
810;DHT22;387;48.772;9.186;2022-08-01T13:48:41;28.20;52.60
810;DHT22;387;48.772;9.186;2022-08-01T13:51:06;28.10;52.50
810;DHT22;387;48.772;9.186;2022-08-01T13:53:32;28.20;52.60
810;DHT22;387;48.772;9.186;2022-08-01T13:55:57;28.80;52.10
810;DHT22;387;48.772;9.186;2022-08-01T13:58:23;29.10;49.90
810;DHT22;387;48.772;9.186;2022-08-01T14:00:49;29.30;49.90
810;DHT22;387;48.772;9.186;2022-08-01T14:03:15;29.40;49.40
810;DHT22;387;48.772;9.186;2022-08-01T14:05:42;29.10;50.20
810;DHT22;387;48.772;9.186;2022-08-01T14:08:08;28.90;51.30
810;DHT22;387;48.772;9.186;2022-08-01T14:10:34;28.90;51.00
810;DHT22;387;48.772;9.186;2022-08-01T14:12:59;28.50;52.00
810;DHT22;387;48.772;9.186;2022-08-01T14:15:25;28.70;51.30
810;DHT22;387;48.772;9.186;2022-08-01T14:17:51;28.30;52.40
810;DHT22;387;48.772;9.186;2022-08-01T14:20:17;28.30;52.60
810;DHT22;387;48.772;9.186;2022-08-01T14:22:48;28.60;51.80
810;DHT22;387;48.772;9.186;2022-08-01T14:25:14;28.80;51.40
810;DHT22;387;48.772;9.186;2022-08-01T14:27:40;28.60;51.00
810;DHT22;387;48.772;9.186;2022-08-01T14:30:07;28.60;51.70
810;DHT22;387;48.772;9.186;2022-08-01T14:32:34;29.00;50.60
810;DHT22;387;48.772;9.186;2022-08-01T14:35:01;28.80;50.20
810;DHT22;387;48.772;9.186;2022-08-01T14:37:27;28.70;51.00
810;DHT22;387;48.772;9.186;2022-08-01T14:39:57;29.20;50.20
810;DHT22;387;48.772;9.186;2022-08-01T14:42:23;29.00;49.80
810;DHT22;387;48.772;9.186;2022-08-01T14:44:49;28.40;51.70
810;DHT22;387;48.772;9.186;2022-08-01T14:47:15;28.70;51.30
810;DHT22;387;48.772;9.186;2022-08-01T14:49:40;28.80;50.60
810;DHT22;387;48.772;9.186;2022-08-01T14:52:06;29.00;50.30
810;DHT22;387;48.772;9.186;2022-08-01T14:54:31;28.90;50.60
810;DHT22;387;48.772;9.186;2022-08-01T14:56:57;28.90;50.50
810;DHT22;387;48.772;9.186;2022-08-01T14:59:23;29.00;50.60
810;DHT22;387;48.772;9.186;2022-08-01T15:01:49;29.00;50.60
810;DHT22;387;48.772;9.186;2022-08-01T15:04:14;29.10;50.30
810;DHT22;387;48.772;9.186;2022-08-01T15:06:40;29.10;50.10
810;DHT22;387;48.772;9.186;2022-08-01T15:09:06;29.00;50.10
810;DHT22;387;48.772;9.186;2022-08-01T15:11:31;29.10;50.20
810;DHT22;387;48.772;9.186;2022-08-01T15:13:57;29.30;49.40
810;DHT22;387;48.772;9.186;2022-08-01T15:16:41;29.40;48.70
810;DHT22;387;48.772;9.186;2022-08-01T15:19:07;29.50;47.80
810;DHT22;387;48.772;9.186;2022-08-01T15:21:33;29.60;48.10
810;DHT22;387;48.772;9.186;2022-08-01T15:23:58;29.10;48.90
810;DHT22;387;48.772;9.186;2022-08-01T15:26:24;28.80;49.50
810;DHT22;387;48.772;9.186;2022-08-01T15:28:50;28.80;49.90
810;DHT22;387;48.772;9.186;2022-08-01T15:31:15;28.70;49.50
810;DHT22;387;48.772;9.186;2022-08-01T15:33:41;29.00;49.40
810;DHT22;387;48.772;9.186;2022-08-01T15:36:06;29.30;48.50
810;DHT22;387;48.772;9.186;2022-08-01T15:38:32;29.30;48.70
810;DHT22;387;48.772;9.186;2022-08-01T15:40:58;29.20;48.60
810;DHT22;387;48.772;9.186;2022-08-01T15:43:24;29.10;49.00
810;DHT22;387;48.772;9.186;2022-08-01T15:45:49;29.00;49.10
810;DHT22;387;48.772;9.186;2022-08-01T15:48:16;28.90;49.40
810;DHT22;387;48.772;9.186;2022-08-01T15:50:41;28.70;49.10
810;DHT22;387;48.772;9.186;2022-08-01T15:53:07;28.80;49.40
810;DHT22;387;48.772;9.186;2022-08-01T15:55:36;28.90;48.70
810;DHT22;387;48.772;9.186;2022-08-01T15:58:02;29.10;48.10
810;DHT22;387;48.772;9.186;2022-08-01T16:00:28;29.10;48.20
810;DHT22;387;48.772;9.186;2022-08-01T16:02:53;28.80;48.60
810;DHT22;387;48.772;9.186;2022-08-01T16:05:21;28.50;49.70
810;DHT22;387;48.772;9.186;2022-08-01T16:07:47;28.40;50.10
810;DHT22;387;48.772;9.186;2022-08-01T16:10:12;28.40;50.30
810;DHT22;387;48.772;9.186;2022-08-01T16:12:38;28.60;49.80
810;DHT22;387;48.772;9.186;2022-08-01T16:15:04;28.30;49.80
810;DHT22;387;48.772;9.186;2022-08-01T16:17:30;28.00;50.60
810;DHT22;387;48.772;9.186;2022-08-01T16:19:56;27.90;51.20
810;DHT22;387;48.772;9.186;2022-08-01T16:22:21;27.80;51.80
810;DHT22;387;48.772;9.186;2022-08-01T16:24:47;27.90;51.30
810;DHT22;387;48.772;9.186;2022-08-01T16:27:12;27.80;51.60
810;DHT22;387;48.772;9.186;2022-08-01T16:29:38;28.30;50.90
810;DHT22;387;48.772;9.186;2022-08-01T16:32:04;28.20;50.30
810;DHT22;387;48.772;9.186;2022-08-01T16:34:31;27.90;50.90
810;DHT22;387;48.772;9.186;2022-08-01T16:36:56;27.80;51.30
810;DHT22;387;48.772;9.186;2022-08-01T16:39:22;27.80;51.60
810;DHT22;387;48.772;9.186;2022-08-01T16:41:48;27.70;51.80
810;DHT22;387;48.772;9.186;2022-08-01T16:44:13;27.90;51.40
810;DHT22;387;48.772;9.186;2022-08-01T16:46:40;28.10;50.60
810;DHT22;387;48.772;9.186;2022-08-01T16:49:06;28.00;51.00
810;DHT22;387;48.772;9.186;2022-08-01T16:51:32;27.80;51.60
810;DHT22;387;48.772;9.186;2022-08-01T16:53:59;27.50;52.20
810;DHT22;387;48.772;9.186;2022-08-01T16:56:25;27.50;52.40
810;DHT22;387;48.772;9.186;2022-08-01T16:58:50;27.50;52.00
810;DHT22;387;48.772;9.186;2022-08-01T17:01:16;27.40;52.10
810;DHT22;387;48.772;9.186;2022-08-01T17:03:45;27.50;52.20
810;DHT22;387;48.772;9.186;2022-08-01T17:06:12;27.70;51.80
810;DHT22;387;48.772;9.186;2022-08-01T17:08:38;27.80;51.40
810;DHT22;387;48.772;9.186;2022-08-01T17:11:03;27.80;51.60
810;DHT22;387;48.772;9.186;2022-08-01T17:13:29;27.40;52.80
810;DHT22;387;48.772;9.186;2022-08-01T17:15:54;27.40;53.20
810;DHT22;387;48.772;9.186;2022-08-01T17:18:20;27.30;53.20
810;DHT22;387;48.772;9.186;2022-08-01T17:20:46;27.20;53.40
810;DHT22;387;48.772;9.186;2022-08-01T17:23:15;27.20;53.60